Monarch Bay, California
Current Conditions -  °F | °C
As of 1:53 AM on Saturday 29 Nov 2014 (Local Time) from KSNA Reporting Station
Clear Clear  
Wind Chill: 56°   Ceiling: Unl
Heat Index: 56°   Visibility: 10mi
Dew Point: 40°   Wind: 0mph
Humidity: 55%   Direction: NA
Pressure: 29.88"   Gusts: NA
Location:  33.4774°N, 117.704°W
Report Text: KSNA 290953Z AUTO 00000KT 10SM CLR 13/04 A2988 RMK AO2 SLP118 T01330044 TSNO
Loading
Personal Weather Stations






























Interactive Weather Map New forecast layout! Learn more

10-Day Weather Forecast

Advertisements
Track Severe Weather on mobile